Time;durP1;ratioP1;P1;durP2;ratioP2;P2;SDS_P1;SDS_P2;PMS_P1;PMS_P2;Temp;Humidity;BMP_temperature;BMP_pressure;BME280_temperature;BME280_humidity;BME280_pressure;Samples;Min_cycle;Max_cycle;Signal;HPM_P1;HPM_P2
2021/12/08 00:00:53;;;;;;;25.30;10.32;;;1.50;99.90;;;;;;5056597;28;20380;-74
2021/12/08 00:03:21;;;;;;;27.48;10.23;;;1.40;99.90;;;;;;5074352;28;20115;-74
2021/12/08 00:05:47;;;;;;;25.13;10.70;;;1.40;99.90;;;;;;5074331;28;20384;-74
2021/12/08 00:08:16;;;;;;;27.40;10.98;;;1.30;99.90;;;;;;5056307;28;20113;-74
2021/12/08 00:13:30;;;;;;;31.25;12.05;;;1.10;99.90;;;;;;5074197;28;20372;-73
2021/12/08 00:15:58;;;;;;;28.52;9.68;;;1.10;99.90;;;;;;5056297;28;20028;-73
2021/12/08 00:18:27;;;;;;;26.08;10.10;;;1.00;99.90;;;;;;5074008;28;20020;-73
2021/12/08 00:20:56;;;;;;;28.75;11.15;;;0.90;99.90;;;;;;5074059;28;20086;-73
2021/12/08 00:23:23;;;;;;;28.40;10.63;;;0.80;99.90;;;;;;5074055;28;20078;-73
2021/12/08 00:25:49;;;;;;;22.27;9.57;;;0.70;99.90;;;;;;5073977;28;20038;-73
2021/12/08 00:28:15;;;;;;;24.38;11.48;;;0.70;99.90;;;;;;5055718;28;20039;-73
2021/12/08 00:30:44;;;;;;;26.33;11.20;;;0.60;99.90;;;;;;5067772;28;20489;-73
2021/12/08 00:33:10;;;;;;;23.55;9.88;;;0.50;99.90;;;;;;5094193;28;20028;-73
2021/12/08 00:35:37;;;;;;;22.90;9.30;;;0.50;99.90;;;;;;5093883;28;20063;-73
2021/12/08 00:38:04;;;;;;;26.25;10.52;;;0.40;99.90;;;;;;5092774;28;20119;-74
2021/12/08 00:40:32;;;;;;;27.23;9.98;;;0.30;99.90;;;;;;5093327;28;20032;-73
2021/12/08 00:42:58;;;;;;;27.33;10.83;;;0.20;99.90;;;;;;5094356;28;20024;-73
2021/12/08 00:45:25;;;;;;;26.20;12.25;;;0.10;99.90;;;;;;5094024;28;20262;-73
2021/12/08 00:47:51;;;;;;;22.92;10.07;;;0.00;99.90;;;;;;5093913;28;20039;-73
2021/12/08 00:50:19;;;;;;;22.27;10.35;;;0.00;99.90;;;;;;5093243;28;20028;-73
2021/12/08 00:52:44;;;;;;;22.15;9.63;;;-0.10;99.90;;;;;;5092631;28;20021;-73
2021/12/08 00:55:13;;;;;;;29.13;9.70;;;-0.20;99.90;;;;;;5093103;28;20024;-73
2021/12/08 00:57:39;;;;;;;22.13;9.27;;;-0.30;99.90;;;;;;5092622;28;20464;-73
2021/12/08 01:00:10;;;;;;;25.55;9.20;;;-0.30;99.90;;;;;;5092651;28;20034;-73
2021/12/08 01:02:39;;;;;;;23.52;9.60;;;-0.30;99.90;;;;;;5094004;28;20103;-73
2021/12/08 01:05:07;;;;;;;17.13;8.13;;;-0.40;99.90;;;;;;5092494;28;20020;-73
2021/12/08 01:07:33;;;;;;;27.67;10.93;;;-0.50;99.90;;;;;;5093793;28;20032;-73
2021/12/08 01:09:59;;;;;;;29.40;10.30;;;-0.50;99.90;;;;;;5092440;28;20028;-73
2021/12/08 01:12:24;;;;;;;30.98;10.43;;;-0.50;99.90;;;;;;5093741;28;20024;-73
2021/12/08 01:14:50;;;;;;;21.67;10.38;;;-0.60;99.90;;;;;;5092384;28;20024;-73
2021/12/08 01:17:16;;;;;;;28.17;10.68;;;-0.60;99.90;;;;;;5092284;28;20111;-73
2021/12/08 01:19:41;;;;;;;25.42;9.63;;;-0.60;99.90;;;;;;5092606;28;20028;-73
2021/12/08 01:22:07;;;;;;;28.13;9.95;;;-0.60;99.90;;;;;;5092362;28;20028;-73
2021/12/08 01:24:33;;;;;;;32.17;11.95;;;-0.60;99.90;;;;;;5093287;28;20028;-73
2021/12/08 01:26:59;;;;;;;23.38;10.57;;;-0.60;99.90;;;;;;5092272;28;20028;-73
2021/12/08 01:29:25;;;;;;;31.88;10.15;;;-0.60;99.90;;;;;;5092297;28;20032;-73
2021/12/08 01:31:51;;;;;;;30.67;11.43;;;-0.70;99.90;;;;;;5075497;28;20402;-73
2021/12/08 01:34:17;;;;;;;24.98;11.05;;;-0.70;99.90;;;;;;5073376;28;20101;-73
2021/12/08 01:36:43;;;;;;;34.80;12.10;;;-0.60;99.90;;;;;;5073182;28;20032;-73
2021/12/08 01:39:10;;;;;;;28.33;10.60;;;-0.50;99.90;;;;;;5073257;28;20391;-73
2021/12/08 01:41:35;;;;;;;25.75;11.80;;;-0.50;99.90;;;;;;5073440;28;20017;-73
2021/12/08 01:46:46;;;;;;;29.65;11.38;;;-0.40;99.90;;;;;;5072943;28;20090;-73
2021/12/08 01:49:13;;;;;;;31.52;10.55;;;-0.30;99.90;;;;;;5073453;28;20029;-73
2021/12/08 01:51:39;;;;;;;24.20;10.30;;;-0.20;99.90;;;;;;5073113;28;20027;-73
2021/12/08 01:54:06;;;;;;;29.08;11.63;;;-0.20;99.90;;;;;;5055636;28;20115;-73
2021/12/08 01:56:34;;;;;;;24.70;10.27;;;-0.10;99.90;;;;;;5073016;28;20024;-73
2021/12/08 01:59:03;;;;;;;29.00;11.57;;;0.00;99.90;;;;;;5055079;28;20028;-73
2021/12/08 02:01:31;;;;;;;26.80;10.75;;;0.00;99.90;;;;;;5072794;28;20377;-73
2021/12/08 02:04:03;;;;;;;31.30;11.35;;;0.10;99.90;;;;;;5075635;28;20032;-73
2021/12/08 02:06:29;;;;;;;22.92;10.77;;;0.10;99.90;;;;;;5076659;28;20021;-73
2021/12/08 02:08:55;;;;;;;27.83;10.98;;;0.20;99.90;;;;;;5058602;28;20024;-73
2021/12/08 02:11:24;;;;;;;29.33;11.93;;;0.30;99.90;;;;;;5076538;28;20483;-73
2021/12/08 02:13:52;;;;;;;24.38;10.15;;;0.30;99.90;;;;;;5058185;28;20035;-73
2021/12/08 02:16:18;;;;;;;26.13;10.88;;;0.30;99.90;;;;;;5058978;28;20053;-73
2021/12/08 02:18:50;;;;;;;29.42;10.57;;;0.40;99.90;;;;;;5076111;28;20125;-73
2021/12/08 02:21:29;;;;;;;25.90;11.05;;;0.40;99.90;;;;;;5058687;28;20384;-73
2021/12/08 02:23:58;;;;;;;25.45;11.25;;;0.40;99.90;;;;;;5058568;28;20028;-73
2021/12/08 02:26:27;;;;;;;28.80;10.50;;;0.40;99.90;;;;;;5075884;28;20427;-73
2021/12/08 02:28:53;;;;;;;35.13;11.57;;;0.40;99.90;;;;;;5058232;28;20028;-73
2021/12/08 02:31:29;;;;;;;24.33;9.35;;;0.40;99.90;;;;;;5076442;28;20429;-73
2021/12/08 02:47:53;;;;;;;27.05;11.05;;;0.40;99.90;;;;;;5075578;28;20040;-73
2021/12/08 02:50:32;;;;;;;30.30;11.52;;;0.40;99.90;;;;;;5075499;28;20456;-73
2021/12/08 02:52:58;;;;;;;;;;;0.40;99.90;;;;;;5076270;28;20043;-73
2021/12/08 02:55:26;;;;;;;31.23;11.27;;;0.40;99.90;;;;;;5075738;28;19905;-73
2021/12/08 02:57:52;;;;;;;29.00;11.77;;;0.40;99.90;;;;;;5075521;28;20103;-73
2021/12/08 03:00:25;;;;;;;26.75;11.80;;;0.30;99.90;;;;;;5057600;28;20487;-73
2021/12/08 03:02:54;;;;;;;34.55;12.68;;;0.40;99.90;;;;;;5057547;28;20020;-73
2021/12/08 03:05:20;;;;;;;35.20;11.90;;;0.40;99.90;;;;;;5075252;28;20103;-73
2021/12/08 03:07:46;;;;;;;34.10;13.15;;;0.40;99.90;;;;;;5075425;28;20029;-73
2021/12/08 03:10:15;;;;;;;39.28;14.27;;;0.40;99.90;;;;;;5075104;28;20024;-72
2021/12/08 03:12:42;;;;;;;28.80;11.60;;;0.40;99.90;;;;;;5075389;28;20107;-72
2021/12/08 03:15:09;;;;;;;32.58;12.63;;;0.40;99.90;;;;;;5057026;28;20031;-73
2021/12/08 03:17:35;;;;;;;37.53;12.75;;;0.40;99.90;;;;;;5075113;28;20385;-73
2021/12/08 03:20:06;;;;;;;39.55;14.73;;;0.40;99.90;;;;;;5075243;28;20380;-72
2021/12/08 03:22:35;;;;;;;36.03;12.38;;;0.40;99.90;;;;;;5075235;28;20032;-73
2021/12/08 03:25:04;;;;;;;28.92;12.45;;;0.40;99.90;;;;;;5057278;28;20032;-73
2021/12/08 03:27:36;;;;;;;38.28;13.82;;;0.40;99.90;;;;;;5075069;28;20024;-73
2021/12/08 03:30:14;;;;;;;34.67;11.88;;;0.50;99.90;;;;;;5075585;28;20453;-73
2021/12/08 03:35:25;;;;;;;35.13;14.13;;;0.50;99.90;;;;;;5075157;28;20396;-73
2021/12/08 03:37:52;;;;;;;38.83;13.05;;;0.50;99.90;;;;;;5056762;28;20032;-72
2021/12/08 03:40:24;;;;;;;31.70;11.98;;;0.50;99.90;;;;;;5056987;28;20024;-73
2021/12/08 03:42:52;;;;;;;31.98;12.80;;;0.60;99.90;;;;;;5074795;28;20473;-73
2021/12/08 03:45:34;;;;;;;33.28;13.30;;;0.50;99.90;;;;;;5057239;28;20074;-73
2021/12/08 03:48:09;;;;;;;40.50;15.20;;;0.50;99.90;;;;;;5057148;28;20480;-73
2021/12/08 03:50:38;;;;;;;33.63;12.57;;;0.50;99.90;;;;;;5056834;28;20025;-73
2021/12/08 03:53:06;;;;;;;39.55;13.00;;;0.40;99.90;;;;;;5056857;28;20031;-73
2021/12/08 03:55:31;;;;;;;35.40;13.00;;;0.30;99.90;;;;;;5074297;28;20115;-73
2021/12/08 03:57:57;;;;;;;34.10;13.45;;;0.40;99.90;;;;;;5056390;28;20163;-73
2021/12/08 04:00:27;;;;;;;39.75;13.40;;;0.40;99.90;;;;;;5056401;28;20035;-73
2021/12/08 04:02:53;;;;;;;35.10;13.55;;;0.40;99.90;;;;;;5074289;28;20111;-73
2021/12/08 04:05:30;;;;;;;37.33;12.98;;;0.40;99.90;;;;;;5056331;28;20055;-73
2021/12/08 04:08:02;;;;;;;39.55;14.63;;;0.40;99.90;;;;;;5056689;28;20032;-73
2021/12/08 04:10:28;;;;;;;33.35;12.18;;;0.40;99.90;;;;;;5056284;28;20078;-73
2021/12/08 04:12:54;;;;;;;35.45;13.15;;;0.40;99.90;;;;;;5056261;28;20033;-73
2021/12/08 04:15:22;;;;;;;44.17;14.82;;;0.40;99.90;;;;;;5056154;28;20021;-73
2021/12/08 04:17:50;;;;;;;35.50;13.23;;;0.40;99.90;;;;;;5073922;28;20543;-73
2021/12/08 04:20:21;;;;;;;35.78;13.38;;;0.40;99.90;;;;;;5074230;28;20028;-73
2021/12/08 04:22:50;;;;;;;42.67;13.52;;;0.40;99.90;;;;;;5056100;28;20024;-73
2021/12/08 04:25:20;;;;;;;39.30;13.40;;;0.30;99.90;;;;;;5073345;28;20017;-73
2021/12/08 04:27:49;;;;;;;30.10;12.43;;;0.30;99.90;;;;;;5074237;28;20043;-73
2021/12/08 04:30:20;;;;;;;35.38;13.00;;;0.20;99.90;;;;;;5073583;28;20392;-73
2021/12/08 04:32:46;;;;;;;43.67;14.38;;;0.10;99.90;;;;;;5074074;28;20033;-73
2021/12/08 04:35:15;;;;;;;40.20;14.50;;;0.00;99.90;;;;;;5055803;28;20025;-72
2021/12/08 04:37:45;;;;;;;36.25;13.07;;;-0.10;99.90;;;;;;5073825;28;20024;-73
2021/12/08 04:45:53;;;;;;;37.55;13.13;;;-0.30;99.90;;;;;;5073831;28;20037;-73
2021/12/08 04:48:40;;;;;;;36.50;13.50;;;-0.30;99.90;;;;;;5056174;28;20035;-73
2021/12/08 04:53:59;;;;;;;41.28;13.45;;;-0.40;99.90;;;;;;5073758;28;20029;-73
2021/12/08 05:10:01;;;;;;;41.33;13.10;;;-0.40;99.90;;;;;;5073570;28;20032;-73
2021/12/08 05:12:31;;;;;;;47.60;15.27;;;-0.40;99.90;;;;;;5055268;28;20029;-73
2021/12/08 05:15:21;;;;;;;39.65;13.60;;;-0.40;99.90;;;;;;5055530;28;20472;-73
2021/12/08 05:17:59;;;;;;;42.33;13.30;;;-0.30;99.90;;;;;;5073115;28;20481;-73
2021/12/08 05:20:32;;;;;;;37.30;12.95;;;-0.30;99.90;;;;;;5055645;28;20032;-72
2021/12/08 05:23:04;;;;;;;43.67;15.48;;;-0.30;99.90;;;;;;5055519;28;20024;-73
2021/12/08 05:25:34;;;;;;;47.22;16.13;;;-0.30;99.90;;;;;;5073716;28;20031;-73
2021/12/08 05:28:03;;;;;;;47.92;15.30;;;-0.30;99.90;;;;;;5055406;28;20037;-72
2021/12/08 05:30:39;;;;;;;;;;;-0.30;99.90;;;;;;5063923;28;20059;-73
2021/12/08 05:33:05;;;;;;;41.97;13.25;;;-0.30;99.90;;;;;;5092413;28;19930;-73
2021/12/08 05:35:31;;;;;;;41.30;14.50;;;-0.30;99.90;;;;;;5093801;28;20020;-73
2021/12/08 05:37:57;;;;;;;33.22;12.55;;;-0.20;99.90;;;;;;5094942;28;20486;-74
2021/12/08 05:40:52;;;;;;;37.40;14.43;;;-0.30;99.90;;;;;;5097460;28;20035;-73
2021/12/08 05:43:17;;;;;;;39.38;13.13;;;-0.20;99.90;;;;;;5094369;28;20032;-73
2021/12/08 05:45:45;;;;;;;43.10;14.07;;;-0.20;99.90;;;;;;5096945;28;20065;-73
2021/12/08 05:48:11;;;;;;;34.97;13.35;;;-0.20;99.90;;;;;;5095942;28;20119;-73
2021/12/08 05:50:51;;;;;;;31.63;13.10;;;-0.20;99.90;;;;;;5096373;28;20353;-73
2021/12/08 05:53:17;;;;;;;35.28;13.60;;;-0.20;99.90;;;;;;5097364;28;20028;-73
2021/12/08 05:55:45;;;;;;;35.20;12.85;;;-0.20;99.90;;;;;;5096494;28;20066;-74
2021/12/08 05:58:12;;;;;;;35.20;13.32;;;-0.20;99.90;;;;;;5098059;28;20043;-74
2021/12/08 06:00:51;;;;;;;41.45;14.93;;;-0.10;99.90;;;;;;5097504;28;20032;-74
2021/12/08 06:03:18;;;;;;;30.20;12.23;;;-0.20;99.90;;;;;;5097269;28;20063;-73
2021/12/08 06:05:46;;;;;;;36.05;12.35;;;-0.20;99.90;;;;;;5095587;28;20032;-73
2021/12/08 06:08:12;;;;;;;33.40;12.98;;;-0.20;99.90;;;;;;5096886;28;20028;-73
2021/12/08 06:10:39;;;;;;;34.97;13.35;;;-0.30;99.90;;;;;;5096849;28;20033;-73
2021/12/08 06:13:08;;;;;;;37.83;13.00;;;-0.40;99.90;;;;;;5096406;28;20375;-73
2021/12/08 06:15:35;;;;;;;;;;;-0.40;99.90;;;;;;5097084;28;20150;-73
2021/12/08 06:18:01;;;;;;;29.55;12.65;;;-0.40;99.90;;;;;;5096924;28;19919;-73
2021/12/08 06:20:27;;;;;;;36.15;11.50;;;-0.50;99.90;;;;;;5095278;28;20123;-73
2021/12/08 06:22:56;;;;;;;33.97;13.38;;;-0.60;99.90;;;;;;5096465;28;20044;-73
2021/12/08 06:25:22;;;;;;;32.92;12.68;;;-0.60;99.90;;;;;;5095219;28;20028;-73
2021/12/08 06:27:48;;;;;;;30.70;11.55;;;-0.70;99.90;;;;;;5095091;28;20032;-73
2021/12/08 06:30:18;;;;;;;31.90;11.48;;;-0.70;99.90;;;;;;5095209;28;20040;-73
2021/12/08 06:33:02;;;;;;;31.83;10.63;;;-0.80;99.90;;;;;;5096391;28;20031;-73
2021/12/08 06:35:38;;;;;;;30.77;11.70;;;-0.80;99.90;;;;;;5096272;28;20029;-73
2021/12/08 06:38:06;;;;;;;26.30;10.23;;;-0.90;99.90;;;;;;5096240;28;20032;-73
2021/12/08 06:40:38;;;;;;;37.80;13.25;;;-0.80;99.90;;;;;;5096551;28;20036;-73
2021/12/08 06:43:07;;;;;;;29.65;11.75;;;-0.90;99.90;;;;;;5096373;28;20471;-73
2021/12/08 06:45:36;;;;;;;30.05;10.25;;;-0.90;99.90;;;;;;5096033;28;20032;-72
2021/12/08 06:48:06;;;;;;;34.17;10.90;;;-0.90;99.90;;;;;;5093961;28;20035;-73
2021/12/08 06:50:44;;;;;;;34.17;11.43;;;-0.90;99.90;;;;;;5095697;28;20544;-73
2021/12/08 06:53:10;;;;;;;32.13;11.95;;;-0.90;99.90;;;;;;5096113;28;20059;-73
2021/12/08 06:55:44;;;;;;;30.58;10.68;;;-0.90;99.90;;;;;;5095864;28;20509;-73
2021/12/08 06:58:19;;;;;;;23.02;10.45;;;-0.90;99.90;;;;;;5096012;28;20032;-73
2021/12/08 07:01:15;;;;;;;26.08;11.50;;;-0.90;99.90;;;;;;5094556;28;20028;-73
2021/12/08 07:04:13;;;;;;;33.13;11.30;;;-0.80;99.90;;;;;;5094768;28;20028;-73
2021/12/08 07:06:58;;;;;;;28.33;10.90;;;-0.90;99.90;;;;;;5096111;28;20388;-73
2021/12/08 07:10:14;;;;;;;23.10;9.68;;;-0.80;99.90;;;;;;5094428;28;20258;-72
2021/12/08 07:12:46;;;;;;;24.40;9.90;;;-0.70;99.90;;;;;;5079182;28;20472;-74
2021/12/08 07:15:22;;;;;;;25.80;10.32;;;-0.50;99.90;;;;;;5095286;28;20032;-73
2021/12/08 07:17:53;;;;;;;25.38;10.00;;;-0.50;99.90;;;;;;5095351;28;20038;-73
2021/12/08 07:20:41;;;;;;;24.35;9.90;;;-0.40;99.90;;;;;;5095465;28;20036;-70
2021/12/08 07:23:10;;;;;;;23.42;9.88;;;-0.40;99.90;;;;;;5095425;28;20055;-74
2021/12/08 07:25:36;;;;;;;30.92;11.55;;;-0.40;99.90;;;;;;5094211;28;20122;-72
2021/12/08 07:28:04;;;;;;;26.23;10.10;;;-0.30;99.90;;;;;;5094969;28;20441;-72
2021/12/08 07:30:41;;;;;;;22.63;8.45;;;-0.20;99.90;;;;;;5093844;28;20081;-72
2021/12/08 07:33:08;;;;;;;25.88;11.15;;;-0.10;99.90;;;;;;5094448;28;20051;-71
2021/12/08 07:35:42;;;;;;;25.10;10.00;;;0.00;99.90;;;;;;5095077;28;20032;-76
2021/12/08 07:38:11;;;;;;;27.35;11.90;;;0.00;99.90;;;;;;5094995;28;20024;-74
2021/12/08 07:41:02;;;;;;;29.17;11.70;;;0.00;99.90;;;;;;5093613;28;20029;-72
2021/12/08 07:43:28;;;;;;;28.58;11.32;;;0.10;99.90;;;;;;5094134;28;20423;-73
2021/12/08 07:46:03;;;;;;;23.77;11.13;;;0.10;99.90;;;;;;5094958;28;20051;-72
2021/12/08 07:48:39;;;;;;;28.83;10.77;;;0.10;99.90;;;;;;5094957;28;20106;-72
2021/12/08 07:51:17;;;;;;;26.90;10.23;;;0.10;99.90;;;;;;5093602;28;20028;-72
2021/12/08 07:53:43;;;;;;;26.07;10.57;;;0.10;99.90;;;;;;5094600;28;20031;-73
2021/12/08 07:56:11;;;;;;;25.20;10.27;;;0.10;99.90;;;;;;5094775;28;20254;-74
2021/12/08 07:58:40;;;;;;;25.90;10.07;;;0.30;99.90;;;;;;5094679;28;20032;-74
2021/12/08 08:01:10;;;;;;;24.33;11.02;;;0.40;99.90;;;;;;5093843;28;20464;-74
2021/12/08 08:03:37;;;;;;;24.80;10.80;;;0.50;99.90;;;;;;5093651;28;20039;-73
2021/12/08 08:06:07;;;;;;;23.98;10.45;;;0.40;99.90;;;;;;5094581;28;20034;-74
2021/12/08 08:08:35;;;;;;;23.65;10.52;;;0.50;99.90;;;;;;5094599;28;20028;-73
2021/12/08 08:11:21;;;;;;;20.50;9.50;;;0.60;99.90;;;;;;5094475;28;20024;-73
2021/12/08 08:13:48;;;;;;;25.25;10.15;;;0.60;99.90;;;;;;5094713;28;20024;-72
2021/12/08 08:16:18;;;;;;;21.95;9.93;;;0.60;99.90;;;;;;5094397;28;20028;-72
2021/12/08 08:18:51;;;;;;;21.20;10.02;;;0.70;99.90;;;;;;5092680;28;20028;-73
2021/12/08 08:21:28;;;;;;;25.05;9.85;;;0.80;99.90;;;;;;5092958;28;20028;-72
2021/12/08 08:23:55;;;;;;;21.92;9.60;;;0.90;99.90;;;;;;5094375;28;20032;-73
2021/12/08 08:26:21;;;;;;;20.17;10.23;;;1.10;99.90;;;;;;5094226;28;20031;-73
2021/12/08 08:28:50;;;;;;;23.42;8.82;;;1.30;99.90;;;;;;5094550;28;20028;-72
2021/12/08 08:31:41;;;;;;;19.95;8.95;;;1.60;99.90;;;;;;5081230;28;20072;-73
2021/12/08 08:34:07;;;;;;;20.90;10.43;;;1.80;99.90;;;;;;5056247;28;20361;-72
2021/12/08 08:36:36;;;;;;;20.75;9.77;;;2.10;99.90;;;;;;5055884;28;20082;-72
2021/12/08 08:39:17;;;;;;;17.10;9.07;;;2.50;99.90;;;;;;5055834;28;20123;-72
2021/12/08 08:41:51;;;;;;;21.23;10.52;;;2.90;99.90;;;;;;5056364;28;20032;-73
2021/12/08 08:44:25;;;;;;;21.05;10.60;;;3.40;99.90;;;;;;5073965;28;20024;-73
2021/12/08 08:46:52;;;;;;;20.70;10.88;;;3.70;99.90;;;;;;5073712;28;20021;-72
2021/12/08 08:49:24;;;;;;;16.95;9.07;;;4.20;99.90;;;;;;5073779;28;20021;-72
2021/12/08 08:52:08;;;;;;;20.55;9.57;;;4.20;99.90;;;;;;5073661;28;20020;-72
2021/12/08 08:54:38;;;;;;;22.27;9.95;;;4.00;99.90;;;;;;5056113;28;20384;-72
2021/12/08 08:57:15;;;;;;;16.75;9.20;;;3.80;99.90;;;;;;5056014;28;20392;-73
2021/12/08 08:59:45;;;;;;;20.50;9.52;;;3.60;99.90;;;;;;5073805;28;20029;-73
2021/12/08 09:02:19;;;;;;;17.60;9.52;;;3.40;99.90;;;;;;5073741;28;20036;-73
2021/12/08 09:04:50;;;;;;;22.52;10.75;;;3.50;99.90;;;;;;5073455;28;20488;-72
2021/12/08 09:07:23;;;;;;;17.60;9.43;;;3.70;99.90;;;;;;5055748;28;20090;-72
2021/12/08 09:09:51;;;;;;;21.13;9.68;;;3.80;99.90;;;;;;5073537;28;20025;-73
2021/12/08 09:12:30;;;;;;;17.63;9.07;;;3.90;99.90;;;;;;5075118;28;20464;-73
2021/12/08 09:15:14;;;;;;;21.73;10.30;;;4.20;99.90;;;;;;5077364;28;20028;-73
2021/12/08 09:17:47;;;;;;;19.02;9.77;;;4.60;99.90;;;;;;5077609;28;20043;-72
2021/12/08 09:20:13;;;;;;;20.83;9.75;;;4.50;99.90;;;;;;5058756;28;20035;-73
2021/12/08 09:22:49;;;;;;;16.55;8.45;;;4.30;99.90;;;;;;5057366;28;20021;-73
2021/12/08 09:25:25;;;;;;;18.45;9.63;;;4.70;99.90;;;;;;5039709;28;20021;-72
2021/12/08 09:27:55;;;;;;;18.08;9.02;;;4.60;99.90;;;;;;5039392;28;20366;-67
2021/12/08 09:30:32;;;;;;;17.85;9.48;;;4.30;99.90;;;;;;5057706;28;20447;-68
2021/12/08 09:33:04;;;;;;;18.05;9.30;;;3.80;99.90;;;;;;5057188;28;20027;-68
2021/12/08 09:35:45;;;;;;;18.33;9.60;;;3.60;99.90;;;;;;5039202;28;20021;-67
2021/12/08 09:38:19;;;;;;;20.02;9.10;;;4.00;99.90;;;;;;5039093;28;20067;-69
2021/12/08 09:40:58;;;;;;;20.60;8.98;;;4.20;99.90;;;;;;5057105;28;20044;-69
2021/12/08 09:43:40;;;;;;;22.55;9.20;;;4.80;99.90;;;;;;5057157;28;20067;-67
2021/12/08 09:46:17;;;;;;;15.98;9.00;;;5.10;99.90;;;;;;5058300;28;20039;-73
2021/12/08 09:48:45;;;;;;;18.77;9.35;;;5.30;99.90;;;;;;5075024;28;20063;-72
2021/12/08 09:51:12;;;;;;;18.95;9.52;;;5.80;99.90;;;;;;5057663;28;20132;-74
2021/12/08 09:53:38;;;;;;;16.42;8.25;;;6.00;99.90;;;;;;5057432;28;20107;-73
2021/12/08 09:56:05;;;;;;;17.23;8.70;;;5.90;99.90;;;;;;5058072;28;20115;-71
2021/12/08 09:58:31;;;;;;;18.00;9.43;;;5.80;99.90;;;;;;5075474;28;20033;-74
2021/12/08 10:00:59;;;;;;;16.55;8.68;;;5.70;99.90;;;;;;5075588;28;20036;-75
2021/12/08 10:03:26;;;;;;;16.70;9.40;;;5.20;99.90;;;;;;5075296;28;20031;-70
2021/12/08 10:05:52;;;;;;;15.45;8.27;;;5.00;99.90;;;;;;5057735;28;20358;-70
2021/12/08 10:08:19;;;;;;;20.40;8.93;;;5.00;99.90;;;;;;5057737;28;20035;-67
2021/12/08 10:10:46;;;;;;;16.00;9.30;;;5.00;99.90;;;;;;5075216;28;20111;-67
2021/12/08 10:13:14;;;;;;;17.30;8.73;;;5.30;99.90;;;;;;5075162;28;20050;-68
2021/12/08 10:15:40;;;;;;;15.68;8.73;;;5.60;99.90;;;;;;5074964;28;20040;-72
2021/12/08 10:18:07;;;;;;;18.52;8.73;;;5.60;99.90;;;;;;5075094;28;20021;-70
2021/12/08 10:20:40;;;;;;;15.95;8.25;;;5.40;99.90;;;;;;5075222;28;20028;-74
2021/12/08 10:23:35;;;;;;;17.63;8.63;;;5.70;99.90;;;;;;5071661;28;20045;-75
2021/12/08 10:26:09;;;;;;;13.43;7.47;;;6.20;99.90;;;;;;5056781;28;20024;-73
2021/12/08 10:28:50;;;;;;;15.13;7.65;;;6.30;99.90;;;;;;5075286;28;20469;-69
2021/12/08 10:31:40;;;;;;;13.98;7.63;;;6.40;99.90;;;;;;5073003;28;20120;-72
2021/12/08 10:34:36;;;;;;;16.63;7.50;;;6.40;99.90;;;;;;5075185;28;20120;-66
2021/12/08 10:37:10;;;;;;;14.52;7.22;;;6.70;99.90;;;;;;5074097;28;20055;-72
2021/12/08 10:39:37;;;;;;;13.35;7.25;;;6.70;99.90;;;;;;5074910;28;20035;-71
2021/12/08 10:42:14;;;;;;;14.07;7.60;;;6.60;99.90;;;;;;5056624;28;20039;-71
2021/12/08 10:45:07;;;;;;;8.95;6.00;;;7.00;99.90;;;;;;5056916;28;20071;-71
2021/12/08 10:47:38;;;;;;;11.02;6.82;;;6.90;99.90;;;;;;5074599;28;20040;-67
2021/12/08 10:55:20;;;;;;;13.57;6.43;;;6.00;99.90;;;;;;5074247;28;20085;-69
2021/12/08 10:57:50;;;;;;;10.80;6.35;;;5.80;99.90;;;;;;5073272;28;20063;-71
2021/12/08 11:00:28;;;;;;;19.02;6.72;;;6.90;99.90;;;;;;5056578;28;20115;-69
2021/12/08 11:03:03;;;;;;;12.18;6.57;;;8.30;97.40;;;;;;5074463;28;20049;-70
2021/12/08 11:05:47;;;;;;;10.95;6.63;;;8.70;95.10;;;;;;5072513;28;20032;-70
2021/12/08 11:08:15;;;;;;;9.93;6.55;;;9.10;90.80;;;;;;5075106;28;20032;-69
2021/12/08 11:10:59;;;;;;;11.45;6.38;;;8.30;93.70;;;;;;5075305;28;20048;-68
2021/12/08 11:13:28;;;;;;;12.82;6.32;;;7.50;96.20;;;;;;5074964;28;20542;-68
2021/12/08 11:16:19;;;;;;;10.65;6.28;;;7.70;97.90;;;;;;5057309;28;20070;-69
2021/12/08 11:18:48;;;;;;;10.18;6.00;;;7.50;97.20;;;;;;5075155;28;20037;-69
2021/12/08 11:21:20;;;;;;;10.05;6.35;;;7.30;98.40;;;;;;5075109;28;20033;-67
2021/12/08 11:23:49;;;;;;;10.15;6.25;;;7.80;97.90;;;;;;5057722;28;20025;-68
2021/12/08 11:26:17;;;;;;;11.60;6.82;;;8.10;96.50;;;;;;5074860;28;20029;-68
2021/12/08 11:29:04;;;;;;;9.43;5.65;;;7.80;96.60;;;;;;5074990;28;20123;-69
2021/12/08 11:31:51;;;;;;;9.07;5.95;;;6.80;98.20;;;;;;5080903;28;20131;-69
2021/12/08 11:34:24;;;;;;;12.52;5.85;;;5.80;99.90;;;;;;5094978;28;20028;-70
2021/12/08 11:36:54;;;;;;;11.02;5.97;;;5.60;99.90;;;;;;5095019;28;20031;-69
2021/12/08 11:39:43;;;;;;;9.27;5.95;;;5.90;99.90;;;;;;5095134;28;20105;-70
2021/12/08 11:42:20;;;;;;;10.98;6.25;;;6.80;99.90;;;;;;5093012;28;20028;-70
2021/12/08 11:44:49;;;;;;;13.15;6.22;;;7.50;98.20;;;;;;5094534;28;20485;-70
2021/12/08 11:47:29;;;;;;;9.80;5.53;;;7.70;97.80;;;;;;5094885;28;20028;-70
2021/12/08 11:49:58;;;;;;;10.68;5.65;;;7.40;97.50;;;;;;5094696;28;20436;-70
2021/12/08 11:52:29;;;;;;;10.73;5.30;;;6.20;99.90;;;;;;5094867;28;20024;-70
2021/12/08 11:55:07;;;;;;;14.32;5.63;;;6.10;99.90;;;;;;5094849;28;20081;-72
2021/12/08 11:57:39;;;;;;;12.10;6.43;;;6.80;99.90;;;;;;5094891;28;20027;-70
2021/12/08 12:00:14;;;;;;;9.60;5.50;;;7.60;98.90;;;;;;5094292;28;20047;-70
2021/12/08 12:02:44;;;;;;;10.07;6.32;;;7.70;98.30;;;;;;5093466;28;20124;-70
2021/12/08 12:05:18;;;;;;;10.52;5.38;;;8.10;97.10;;;;;;5093173;28;20020;-69
2021/12/08 12:07:44;;;;;;;8.20;5.55;;;8.40;95.60;;;;;;5094872;28;20098;-69
2021/12/08 12:10:13;;;;;;;8.80;4.97;;;8.10;95.70;;;;;;5093157;28;20030;-71
2021/12/08 12:12:41;;;;;;;8.63;5.15;;;7.60;96.50;;;;;;5093056;28;20030;-67
2021/12/08 12:15:09;;;;;;;9.13;5.70;;;7.40;98.00;;;;;;5093604;28;20028;-68
2021/12/08 12:17:34;;;;;;;12.90;5.28;;;6.80;99.30;;;;;;5094278;28;20471;-68
2021/12/08 12:20:36;;;;;;;10.77;5.35;;;6.40;99.90;;;;;;5094344;28;20057;-68
2021/12/08 12:23:44;;;;;;;8.40;4.40;;;6.00;99.90;;;;;;5061925;28;20059;-76
2021/12/08 12:26:45;;;;;;;8.27;4.55;;;5.30;99.90;;;;;;5094664;28;20027;-68
2021/12/08 12:29:59;;;;;;;8.60;4.45;;;4.80;99.90;;;;;;5048712;28;20050;-68
2021/12/08 12:32:32;;;;;;;8.65;4.43;;;4.60;99.90;;;;;;5076002;28;20492;-67
2021/12/08 12:35:16;;;;;;;9.60;4.35;;;4.50;99.90;;;;;;5094166;28;20035;-67
2021/12/08 12:37:43;;;;;;;6.38;4.35;;;4.40;99.90;;;;;;5092620;28;20028;-67
2021/12/08 12:40:13;;;;;;;8.90;4.45;;;4.40;99.90;;;;;;5092662;28;20078;-68
2021/12/08 12:42:50;;;;;;;8.68;4.97;;;4.40;99.90;;;;;;5094140;28;20024;-67
2021/12/08 12:45:17;;;;;;;8.80;4.25;;;4.30;99.90;;;;;;5094011;28;20073;-67
2021/12/08 12:48:05;;;;;;;9.68;4.18;;;4.20;99.90;;;;;;5093345;28;20035;-66
2021/12/08 12:50:31;;;;;;;11.38;4.53;;;4.00;99.90;;;;;;5094367;28;20031;-67
2021/12/08 12:53:00;;;;;;;9.32;4.30;;;3.90;99.90;;;;;;5093919;28;20024;-68
2021/12/08 12:55:32;;;;;;;11.05;4.68;;;3.80;99.90;;;;;;5093787;28;20024;-68
2021/12/08 13:00:45;;;;;;;13.10;4.47;;;3.70;99.90;;;;;;5093731;28;20028;-68
2021/12/08 13:03:36;;;;;;;9.38;4.28;;;3.60;99.90;;;;;;5093846;28;20032;-67
2021/12/08 13:06:03;;;;;;;6.07;3.35;;;3.70;99.90;;;;;;5093846;28;20059;-68
2021/12/08 13:08:32;;;;;;;9.10;3.95;;;3.70;99.90;;;;;;5093755;28;20136;-68
2021/12/08 13:11:10;;;;;;;6.95;3.47;;;3.70;99.90;;;;;;5092529;28;20444;-67
2021/12/08 13:13:52;;;;;;;10.00;4.17;;;3.60;99.90;;;;;;5093794;28;20028;-67
2021/12/08 13:16:21;;;;;;;4.88;3.03;;;3.70;99.90;;;;;;5093878;28;20016;-67
2021/12/08 13:18:58;;;;;;;7.32;4.03;;;3.70;99.90;;;;;;5092329;28;20028;-73
2021/12/08 13:21:46;;;;;;;4.93;3.72;;;3.70;99.90;;;;;;5092227;28;20063;-67
2021/12/08 13:24:34;;;;;;;7.30;3.33;;;3.70;99.90;;;;;;5091531;28;20494;-67
2021/12/08 13:27:07;;;;;;;5.43;2.73;;;3.70;99.90;;;;;;5093829;28;20035;-67
2021/12/08 13:29:36;;;;;;;9.20;3.63;;;3.70;99.90;;;;;;5093934;28;20447;-68
2021/12/08 13:32:13;;;;;;;8.20;3.38;;;3.70;99.90;;;;;;5092088;28;20055;-68
2021/12/08 13:34:57;;;;;;;6.25;3.22;;;3.60;99.90;;;;;;5093757;28;20024;-68
2021/12/08 13:37:29;;;;;;;4.78;2.63;;;3.60;99.90;;;;;;5092260;28;20121;-68
2021/12/08 13:40:08;;;;;;;7.28;3.70;;;3.70;99.90;;;;;;5092349;28;20321;-67
2021/12/08 13:42:55;;;;;;;8.50;2.78;;;3.70;99.90;;;;;;5092254;28;20043;-67
2021/12/08 13:45:21;;;;;;;4.65;2.83;;;3.70;99.90;;;;;;5093485;28;20031;-67
2021/12/08 13:47:48;;;;;;;4.53;2.95;;;3.60;99.90;;;;;;5091971;28;20028;-67
2021/12/08 13:50:25;;;;;;;6.50;3.47;;;3.60;99.90;;;;;;5093630;28;20111;-67
2021/12/08 13:52:54;;;;;;;4.63;3.13;;;3.60;99.90;;;;;;5092150;28;20027;-66
2021/12/08 13:55:23;;;;;;;6.95;3.08;;;3.50;99.90;;;;;;5093370;28;20082;-68
2021/12/08 13:57:56;;;;;;;6.32;3.15;;;3.60;99.90;;;;;;5093901;28;20035;-67